Data for 04/15/2006

Time Sea-Level Adjusted Pressure Absolute Pressure Temperature Relative Humidity Dew Point   
(mb) (inHg) (mb) (inHg) (C) (F) (%) (C) (F)
00:05 1002 29.59 831 24.54 11.9 53.5 47 0.9 33.6
00:10 1002 29.59 831 24.54 11.8 53.2 46 0.7 33.3
00:15 1002 29.59 831 24.54 11.6 52.9 48 0.9 33.7
00:20 1002 29.59 831 24.54 11.2 52.1 50 1.1 34
00:25 1002 29.59 831 24.54 11.1 52 50 1 33.8
00:30 1002 29.59 831 24.54 11.1 52 48 0.7 33.2
00:35 1002 29.59 831 24.54 11.1 52 49 0.9 33.6
00:40 1002 29.59 831 24.54 11.1 52.1 50 1 33.9
00:45 1002 29.59 831 24.54 11.2 52.2 49 1 33.8
00:50 1002 29.59 831 24.54 11.4 52.5 49 1.1 34
00:55 1002 29.59 831 24.54 11.4 52.5 50 1.5 34.7
01:00 1002 29.59 831 24.54 11.4 52.6 50 1.4 34.4
01:05 1002 29.59 831 24.54 11.6 52.8 51 1.7 35.1
01:10 1002 29.59 831 24.54 11.4 52.5 51 1.6 34.9
01:15 1002 29.59 831 24.54 11.6 52.9 49 1.4 34.5
01:20 1002 29.59 831 24.54 11.6 53 51 1.9 35.4
01:25 1002 29.59 831 24.54 11.3 52.3 52 1.7 35.1
01:30 1002 29.59 831 24.54 10.9 51.6 53 1.7 35.1
01:35 1002 29.59 831 24.54 10.8 51.4 52 1.4 34.6
01:40 1002 29.59 831 24.54 11 51.8 52 1.5 34.6
01:45 1002 29.59 831 24.54 11 51.8 52 1.6 34.9
01:50 1001 29.56 831 24.54 10.8 51.4 52 1.4 34.5
01:55 1001 29.56 831 24.54 11 51.8 51 1.2 34.2
02:00 1001 29.56 831 24.54 11.1 51.9 52 1.6 35
02:05 1001 29.56 831 24.54 10.5 50.8 54 1.7 35
02:10 1001 29.56 830 24.51 10.3 50.5 54 1.4 34.6
02:15 1001 29.56 830 24.51 10.2 50.3 54 1.4 34.5
02:20 1001 29.56 830 24.51 10 50 56 1.6 34.9
02:25 1001 29.56 830 24.51 9.8 49.6 56 1.4 34.6
02:30 1001 29.56 830 24.51 9.7 49.5 56 1.4 34.5
02:35 1001 29.56 831 24.54 9.5 49 58 1.7 35.1
02:40 1001 29.56 831 24.54 8.7 47.7 61 1.7 35
02:45 1001 29.56 831 24.54 8.4 47.2 61 1.3 34.3
02:50 1001 29.56 831 24.54 8.8 47.9 59 1.3 34.3
02:55 1001 29.56 831 24.54 9 48.2 59 1.4 34.5
03:00 1001 29.56 831 24.54 9.1 48.4 57 1.1 34
03:05 1001 29.56 831 24.54 9.2 48.5 58 1.5 34.6
03:10 1001 29.56 831 24.54 8.6 47.4 60 1.4 34.5
03:15 1002 29.59 831 24.54 8.4 47.1 60 1.2 34.2
03:20 1002 29.59 831 24.54 8.3 47 60 1.1 34
03:25 1001 29.56 831 24.54 8.3 47 60 1.2 34.1
03:30 1001 29.56 831 24.54 8.3 47 61 1.2 34.1
03:35 1002 29.59 831 24.54 8.4 47.1 60 1.2 34.1
03:40 1001 29.56 831 24.54 8.5 47.2 61 1.4 34.5
03:45 1001 29.56 831 24.54 8.2 46.8 62 1.4 34.5
03:50 1001 29.56 830 24.51 8.2 46.7 62 1.4 34.5
03:55 1001 29.56 830 24.51 8.4 47 60 1.1 34.1
04:00 1001 29.56 831 24.54 8.5 47.3 61 1.4 34.5
04:05 1001 29.56 830 24.51 8.2 46.8 62 1.4 34.5
04:10 1001 29.56 830 24.51 8 46.4 63 1.4 34.6
04:15 1001 29.56 830 24.51 8.1 46.5 63 1.4 34.5
04:20 1001 29.56 830 24.51 8 46.3 64 1.5 34.7
04:25 1001 29.56 830 24.51 7.7 45.8 64 1.4 34.5
04:30 1001 29.56 830 24.51 7.5 45.5 65 1.3 34.3
04:35 1001 29.56 830 24.51 7.6 45.7 65 1.4 34.5
04:40 1001 29.56 830 24.51 7.9 46.1 63 1.3 34.4
04:45 1001 29.56 830 24.51 8 46.3 63 1.5 34.6
04:50 1001 29.56 831 24.54 7.9 46.2 64 1.5 34.8
04:55 1001 29.56 831 24.54 7.7 45.8 65 1.5 34.7
05:00 1001 29.56 831 24.54 7.8 46.1 64 1.5 34.7
05:05 1001 29.56 831 24.54 8 46.3 63 1.4 34.6
05:10 1001 29.56 831 24.54 7.9 46.3 64 1.5 34.7
05:15 1001 29.56 831 24.54 7.9 46.2 63 1.3 34.3
05:20 1001 29.56 831 24.54 7.8 46 65 1.7 35
05:25 1001 29.56 831 24.54 7.3 45.2 66 1.5 34.7
05:30 1002 29.59 831 24.54 7.2 45 67 1.5 34.6
05:35 1002 29.59 831 24.54 6.8 44.3 68 1.4 34.5
05:40 1002 29.59 831 24.54 7 44.6 65 0.9 33.6
05:45 1002 29.59 831 24.54 7.2 45 64 1 33.8
05:50 1002 29.59 831 24.54 7.3 45.1 64 0.9 33.6
05:55 1002 29.59 831 24.54 7.3 45.1 64 1 33.8
06:00 1002 29.59 831 24.54 7.2 44.9 64 0.9 33.7
06:05 1002 29.59 831 24.54 7.6 45.6 62 0.8 33.5
06:10 1002 29.59 831 24.54 8.1 46.5 60 0.9 33.5
06:15 1002 29.59 831 24.54 7.9 46.1 62 1.1 33.9
06:20 1002 29.59 831 24.54 7.1 44.8 65 1.1 34
06:25 1002 29.59 831 24.54 7.1 44.7 64 0.8 33.4
06:30 1002 29.59 831 24.54 6.7 44.1 67 1 33.9
06:35 1002 29.59 831 24.54 6.2 43.2 69 1 33.9
06:40 1002 29.59 832 24.57 5.7 42.3 72 1.2 34.1
06:45 1003 29.62 832 24.57 5.6 42.1 72 1 33.7
06:50 1003 29.62 832 24.57 6.1 42.9 71 1.2 34.2
06:55 1003 29.62 832 24.57 6.4 43.5 70 1.4 34.6
07:00 1003 29.62 832 24.57 6.5 43.8 71 1.6 34.9
07:05 1003 29.62 832 24.57 6.6 43.9 71 1.7 35.1
07:10 1003 29.62 832 24.57 7 44.5 70 1.8 35.2
07:15 1003 29.62 832 24.57 7.4 45.2 68 2 35.5
07:20 1003 29.62 832 24.57 7.6 45.6 68 2.1 35.8
07:25 1003 29.62 832 24.57 7.8 46.1 68 2.2 36
07:30 1003 29.62 832 24.57 8.2 46.8 66 2.3 36.2
07:35 1003 29.62 832 24.57 8.3 47 66 2.4 36.3
07:40 1003 29.62 832 24.57 8.7 47.6 64 2.3 36.2
07:45 1003 29.62 832 24.57 8.6 47.4 66 2.5 36.5
07:50 1003 29.62 832 24.57 8.7 47.6 65 2.6 36.6
07:55 1003 29.62 832 24.57 8.1 46.6 68 2.6 36.6
08:00 1003 29.62 832 24.57 8.3 47 67 2.5 36.6
08:05 1003 29.62 832 24.57 8.3 47 67 2.5 36.5
08:10 1003 29.62 832 24.57 9 48.3 63 2.4 36.4
08:15 1003 29.62 832 24.57 9.8 49.6 61 2.6 36.7
08:20 1003 29.62 832 24.57 10.4 50.7 59 2.8 37
08:25 1003 29.62 832 24.57 10.9 51.5 58 3 37.4
08:30 1003 29.62 832 24.57 11 51.7 59 3.2 37.8
08:35 1003 29.62 833 24.6 11 51.9 58 3.1 37.6
08:40 1003 29.62 833 24.6 11.6 52.9 55 3 37.5
08:45 1003 29.62 833 24.6 12 53.6 54 2.9 37.3
08:50 1003 29.62 832 24.57 11.5 52.7 55 2.8 37.1
08:55 1003 29.62 832 24.57 11.9 53.4 54 2.8 37.1
09:00 1003 29.62 832 24.57 11.5 52.7 55 2.8 37.1
09:05 1003 29.62 832 24.57 11.8 53.3 52 2.4 36.3
09:10 1003 29.62 832 24.57 12.5 54.5 51 2.7 36.8
09:15 1003 29.62 832 24.57 12.6 54.6 54 3.6 38.4
09:20 1003 29.62 832 24.57 11.6 52.9 56 3.3 37.9
09:25 1003 29.62 832 24.57 11.7 53 55 2.9 37.1
09:30 1003 29.62 832 24.57 12.5 54.4 52 2.8 37.1
09:35 1003 29.62 832 24.57 13.4 56.2 48 2.6 36.7
09:40 1003 29.62 832 24.57 14 57.2 46 2.6 36.7
09:45 1003 29.62 832 24.57 14 57.1 49 3.5 38.2
09:50 1003 29.62 832 24.57 13.9 57.1 48 3.1 37.6
09:55 1003 29.62 832 24.57 14.1 57.4 47 3.1 37.6
10:00 1003 29.62 832 24.57 13.7 56.6 49 3.2 37.7
10:05 1003 29.62 832 24.57 13.8 56.9 46 2.4 36.3
10:10 1003 29.62 832 24.57 14.2 57.5 44 2.3 36.2
10:15 1003 29.62 832 24.57 14.9 58.8 42 2.1 35.7
10:20 1003 29.62 832 24.57 15.1 59.2 41 1.9 35.4
10:25 1003 29.62 832 24.57 15.6 60.1 40 2 35.7
10:30 1003 29.62 832 24.57 16.5 61.7 35 0.9 33.7
10:35 1003 29.62 832 24.57 16.8 62.2 34 1.1 33.9
10:40 1003 29.62 832 24.57 16.4 61.6 33 0.1 32.2
10:45 1003 29.62 832 24.57 15.7 60.2 35 0.4 32.6
10:50 1003 29.62 832 24.57 15.2 59.3 35 0.1 32.2
10:55 1003 29.62 832 24.57 14.8 58.7 37 0.4 32.7
11:00 1003 29.62 832 24.57 15.1 59.2 35 -0.1 31.9
11:05 1003 29.62 832 24.57 15.8 60.4 34 0.1 32.2
11:10 1003 29.62 832 24.57 16.7 62.1 32 -0 32
11:15 1003 29.62 832 24.57 17.1 62.7 31 0.1 32.2
11:20 1003 29.62 832 24.57 18.1 64.5 29 -0.1 31.8
11:25 1003 29.62 832 24.57 17.7 63.8 29 -0.7 30.8
11:30 1003 29.62 832 24.57 17 62.5 26 -2.8 27
11:35 1003 29.62 832 24.57 16.3 61.3 26 -2.9 26.7
11:40 1003 29.62 832 24.57 16.4 61.4 26 -3.2 26.2
11:45 1003 29.62 832 24.57 16.2 61.2 28 -2.4 27.7
11:50 1003 29.62 832 24.57 16.5 61.7 26 -2.9 26.7
11:55 1003 29.62 832 24.57 16.9 62.5 25 -3 26.6
12:00 1003 29.62 832 24.57 16.9 62.4 25 -3.1 26.5
12:05 1003 29.62 832 24.57 16.9 62.4 26 -2.9 26.8
12:10 1003 29.62 832 24.57 16.6 61.9 26 -2.9 26.8
12:15 1003 29.62 832 24.57 16.7 62 26 -2.6 27.3
12:20 1003 29.62 832 24.57 16.9 62.4 25 -3 26.6
12:25 1003 29.62 832 24.57 16.9 62.3 27 -1.9 28.5
12:30 1002 29.59 832 24.57 17.2 62.9 25 -2.7 27.1
12:35 1003 29.62 832 24.57 17.1 62.7 26 -2.6 27.2
12:40 1002 29.59 832 24.57 16.9 62.3 25 -3.4 25.8
12:45 1002 29.59 832 24.57 17.2 62.9 25 -3.1 26.5
12:50 1002 29.59 832 24.57 16.9 62.4 24 -3.6 25.5
12:55 1002 29.59 832 24.57 17.1 62.8 26 -2.6 27.3
13:00 1002 29.59 831 24.54 17.4 63.3 25 -2.9 26.8
13:05 1002 29.59 831 24.54 17.6 63.8 24 -2.9 26.7
13:10 1002 29.59 832 24.57 17.2 62.9 25 -3 26.6
13:15 1002 29.59 831 24.54 17.3 63.1 26 -2.4 27.8
13:20 1002 29.59 831 24.54 17 62.7 26 -2.6 27.3
13:25 1002 29.59 831 24.54 17.3 63.1 25 -2.6 27.2
13:30 1002 29.59 831 24.54 16.8 62.2 26 -2.5 27.5
13:35 1002 29.59 831 24.54 16.6 61.9 28 -1.8 28.8
13:40 1002 29.59 831 24.54 16.7 62.1 26 -3 26.7
13:45 1002 29.59 831 24.54 16.9 62.5 29 -1.2 29.9
13:50 1002 29.59 831 24.54 17.1 62.7 28 -1.5 29.2
13:55 1002 29.59 832 24.57 17.1 62.7 28 -1.5 29.3
14:00 1002 29.59 832 24.57 16.9 62.4 26 -2.7 27.1
14:05 1002 29.59 832 24.57 16.9 62.5 27 -2.3 27.9
14:10 1003 29.62 832 24.57 16.8 62.2 26 -2.8 27
14:15 1003 29.62 832 24.57 16.5 61.6 26 -2.9 26.9
14:20 1003 29.62 832 24.57 16.6 61.8 25 -3.4 25.9
14:25 1003 29.62 832 24.57 17.1 62.8 25 -2.7 27.1
14:30 1003 29.62 832 24.57 17.3 63.1 24 -3.2 26.2
14:35 1003 29.62 832 24.57 17.2 63 24 -3.1 26.4
14:40 1003 29.62 832 24.57 17.3 63.1 25 -2.6 27.3
14:45 1003 29.62 832 24.57 16.7 62.1 26 -2.6 27.4
14:50 1003 29.62 832 24.57 16.8 62.3 26 -2.8 26.9
14:55 1003 29.62 832 24.57 16.6 61.9 27 -2.5 27.4
15:00 1003 29.62 832 24.57 16.9 62.5 27 -1.9 28.6
15:05 1003 29.62 832 24.57 16.8 62.2 27 -2.4 27.7
15:10 1003 29.62 832 24.57 16.6 61.8 27 -2.5 27.6
15:15 1003 29.62 832 24.57 16.2 61.2 28 -2 28.4
15:20 1003 29.62 832 24.57 16.8 62.2 26 -2.5 27.5
15:25 1003 29.62 832 24.57 17 62.6 26 -2.4 27.6
15:30 1003 29.62 832 24.57 16.6 61.9 27 -2.2 28
15:35 1003 29.62 832 24.57 16.6 61.9 28 -2 28.5
15:40 1003 29.62 832 24.57 16.4 61.5 28 -2.1 28.3
15:45 1003 29.62 832 24.57 16.5 61.8 27 -2.2 28.1
15:50 1003 29.62 832 24.57 16.3 61.3 28 -2.1 28.3
15:55 1003 29.62 832 24.57 16.1 60.9 29 -1.8 28.8
16:00 1003 29.62 832 24.57 16.1 61 27 -2.6 27.4
16:05 1003 29.62 832 24.57 16.2 61.1 28 -2.3 27.9
16:10 1003 29.62 832 24.57 16.4 61.5 26 -2.9 26.8
16:15 1003 29.62 832 24.57 16.4 61.5 27 -2.3 27.8
16:20 1003 29.62 832 24.57 16.2 61.1 27 -2.7 27.2
16:25 1003 29.62 832 24.57 16 60.7 27 -2.9 26.7
16:30 1003 29.62 832 24.57 15.9 60.5 27 -3.1 26.4
16:35 1003 29.62 832 24.57 15.7 60.2 28 -2.8 27
16:40 1003 29.62 833 24.6 15.4 59.6 29 -2.6 27.4
16:45 1003 29.62 833 24.6 15.3 59.5 30 -1.9 28.6
16:50 1003 29.62 833 24.6 15.4 59.7 30 -2.2 28
16:55 1003 29.62 833 24.6 15.4 59.6 28 -2.9 26.8
17:00 1003 29.62 833 24.6 15.2 59.4 29 -2.7 27.1
17:05 1003 29.62 833 24.6 15.3 59.6 28 -3 26.7
17:10 1003 29.62 833 24.6 15.3 59.6 28 -2.8 27
17:15 1003 29.62 833 24.6 15.3 59.5 28 -3.1 26.4
17:20 1003 29.62 833 24.6 15.1 59.2 28 -3 26.6
17:25 1003 29.62 833 24.6 15.2 59.4 28 -3.1 26.4
17:30 1004 29.65 833 24.6 15.2 59.4 28 -3 26.6
17:35 1004 29.65 833 24.6 15.3 59.5 28 -2.9 26.8
17:40 1004 29.65 833 24.6 15.3 59.5 28 -3.1 26.4
17:45 1004 29.65 833 24.6 15.3 59.5 28 -2.8 26.9
17:50 1004 29.65 833 24.6 15.1 59.1 29 -2.8 27
17:55 1004 29.65 833 24.6 15 58.9 29 -3 26.5
18:00 1004 29.65 833 24.6 14.9 58.9 29 -2.8 27
18:05 1004 29.65 833 24.6 14.8 58.7 30 -2.6 27.2
18:10 1004 29.65 833 24.6 14.8 58.6 29 -2.8 27
18:15 1004 29.65 833 24.6 14.8 58.6 30 -2.4 27.6
18:20 1004 29.65 833 24.6 14.7 58.4 30 -2.7 27.2
18:25 1004 29.65 833 24.6 14.7 58.5 30 -2.7 27.2
18:30 1004 29.65 833 24.6 14.6 58.4 30 -2.8 27
18:35 1004 29.65 834 24.63 14.7 58.4 31 -2.2 28
18:40 1004 29.65 834 24.63 14.6 58.3 30 -2.7 27.1
18:45 1004 29.65 834 24.63 14.5 58.1 30 -2.9 26.9
18:50 1004 29.65 834 24.63 14.5 58 31 -2.6 27.3
18:55 1004 29.65 834 24.63 14.5 58 30 -2.8 27
19:00 1004 29.65 834 24.63 14.4 57.9 31 -2.4 27.6
19:05 1005 29.68 834 24.63 14.3 57.7 31 -2.6 27.2
19:10 1005 29.68 834 24.63 14.3 57.7 30 -2.9 26.8
19:15 1005 29.68 834 24.63 14.3 57.7 31 -2.7 27.1
19:20 1005 29.68 834 24.63 14.2 57.6 31 -2.8 27
19:25 1005 29.68 834 24.63 14.1 57.4 32 -2.4 27.8
19:30 1005 29.68 834 24.63 14.1 57.3 31 -2.6 27.4
19:35 1005 29.68 834 24.63 14 57.2 31 -2.6 27.3
19:40 1005 29.68 834 24.63 13.9 57 32 -2.4 27.6
19:45 1005 29.68 834 24.63 13.9 57 33 -2.1 28.1
19:50 1005 29.68 834 24.63 13.8 56.9 32 -2.5 27.5
19:55 1005 29.68 834 24.63 13.7 56.7 31 -2.9 26.8
20:00 1005 29.68 834 24.63 13.7 56.6 31 -3.1 26.5
20:05 1005 29.68 834 24.63 13.7 56.6 32 -2.6 27.4
20:10 1005 29.68 834 24.63 13.6 56.5 32 -2.6 27.3
20:15 1005 29.68 834 24.63 13.6 56.5 32 -2.7 27.2
20:20 1005 29.68 834 24.63 13.7 56.6 31 -2.9 26.8
20:25 1005 29.68 834 24.63 13.6 56.5 31 -3 26.6
20:30 1005 29.68 834 24.63 13.5 56.3 31 -3.1 26.5
20:35 1005 29.68 834 24.63 13.5 56.2 32 -2.9 26.7
20:40 1005 29.68 834 24.63 13.5 56.3 32 -2.7 27.2
20:45 1005 29.68 834 24.63 13.4 56 32 -2.9 26.8
20:50 1005 29.68 834 24.63 13.4 56 32 -3.1 26.4
20:55 1005 29.68 834 24.63 13.4 56.1 31 -3.3 26.1
21:00 1005 29.68 834 24.63 13.2 55.8 33 -2.7 27.2
21:05 1005 29.68 834 24.63 13.2 55.7 32 -3 26.6
21:10 1005 29.68 834 24.63 13.2 55.8 33 -2.8 26.9
21:15 1005 29.68 834 24.63 13 55.4 33 -2.8 27
21:20 1005 29.68 834 24.63 13 55.4 32 -3.1 26.5
21:25 1005 29.68 834 24.63 13.1 55.6 32 -3 26.6
21:30 1005 29.68 834 24.63 13 55.5 33 -2.8 27
21:35 1005 29.68 834 24.63 13.1 55.6 32 -3 26.7
21:40 1005 29.68 834 24.63 13.2 55.7 33 -2.7 27.1
21:45 1005 29.68 834 24.63 13.2 55.7 33 -2.5 27.4
21:50 1005 29.68 834 24.63 13.1 55.5 33 -2.9 26.9
21:55 1005 29.68 834 24.63 13.2 55.8 33 -2.8 27
22:00 1005 29.68 834 24.63 13.1 55.5 34 -2.5 27.6
22:05 1005 29.68 834 24.63 12.9 55.2 34 -2.6 27.4
22:10 1005 29.68 834 24.63 13 55.4 33 -2.9 26.8
22:15 1005 29.68 834 24.63 13.2 55.7 32 -3.2 26.3
22:20 1005 29.68 834 24.63 13.1 55.6 32 -3.2 26.3
22:25 1005 29.68 834 24.63 13.2 55.7 33 -2.7 27.1
22:30 1005 29.68 834 24.63 13 55.4 33 -2.9 26.7
22:35 1005 29.68 835 24.66 12.9 55.1 32 -3.2 26.2
22:40 1005 29.68 835 24.66 12.7 54.9 34 -2.7 27.1
22:45 1005 29.68 835 24.66 12.5 54.6 34 -2.8 26.9
22:50 1005 29.68 835 24.66 12.7 54.8 34 -2.9 26.7
22:55 1005 29.68 835 24.66 12.6 54.6 32 -3.6 25.6
23:00 1005 29.68 835 24.66 12.9 55.1 32 -3.2 26.2
23:05 1006 29.71 835 24.66 12.8 55 33 -3.2 26.3
23:10 1006 29.71 835 24.66 12.5 54.5 33 -3.2 26.3
23:15 1006 29.71 835 24.66 12.4 54.4 34 -2.9 26.8
23:20 1006 29.71 835 24.66 12.5 54.4 34 -3 26.5
23:25 1006 29.71 835 24.66 12.5 54.6 34 -2.8 26.9
23:30 1006 29.71 835 24.66 12.2 54 35 -2.8 26.9
23:35 1006 29.71 835 24.66 12.1 53.8 36 -2.6 27.3
23:40 1006 29.71 835 24.66 11.9 53.3 36 -2.8 27
23:45 1006 29.71 835 24.66 12.2 53.9 34 -3.1 26.5
23:50 1006 29.71 835 24.66 12.2 54 35 -2.7 27.1
23:55 1006 29.71 835 24.66 12.2 53.9 35 -2.7 27.2
24:00 1006 29.71 835 24.66 12.1 53.7 36 -2.6 27.4